Time;durP1;ratioP1;P1;durP2;ratioP2;P2;SDS_P1;SDS_P2;PMS_P1;PMS_P2;Temp;Humidity;BMP_temperature;BMP_pressure;BME280_temperature;BME280_humidity;BME280_pressure;Samples;Min_cycle;Max_cycle;Signal;HPM_P1;HPM_P2
2021/11/23 00:02:12;;;;;;;5.33;2.43;;;;;;;;;;4947634;29;20079;-86
2021/11/23 00:04:38;;;;;;;5.40;2.30;;;;;;;;;;4965733;28;20063;-86
2021/11/23 00:07:04;;;;;;;6.83;3.00;;;;;;;;;;4967154;29;20035;-85
2021/11/23 00:09:30;;;;;;;4.93;2.53;;;;;;;;;;4950529;29;20070;-86
2021/11/23 00:11:56;;;;;;;6.30;2.63;;;;;;;;;;4965784;29;20058;-85
2021/11/23 00:14:22;;;;;;;5.43;2.70;;;;;;;;;;4965213;28;20039;-86
2021/11/23 00:16:48;;;;;;;6.10;2.70;;;;;;;;;;4948708;28;20088;-85
2021/11/23 00:19:14;;;;;;;6.40;3.07;;;;;;;;;;4953550;28;20031;-85
2021/11/23 00:21:41;;;;;;;6.50;2.97;;;;;;;;;;4960125;28;20049;-84
2021/11/23 00:24:08;;;;;;;6.50;3.10;;;;;;;;;;4959618;28;20086;-84
2021/11/23 00:26:34;;;;;;;6.10;2.93;;;;;;;;;;4975528;28;20023;-85
2021/11/23 00:29:00;;;;;;;7.20;3.03;;;;;;;;;;4973160;28;20031;-85
2021/11/23 00:31:26;;;;;;;5.97;2.60;;;;;;;;;;4968906;28;20023;-85
2021/11/23 00:33:52;;;;;;;6.37;2.33;;;;;;;;;;4965932;28;20126;-85
2021/11/23 00:36:18;;;;;;;6.53;3.13;;;;;;;;;;4968766;29;20034;-85
2021/11/23 00:38:45;;;;;;;8.07;3.10;;;;;;;;;;4985566;28;20033;-85
2021/11/23 00:41:16;;;;;;;6.30;2.87;;;;;;;;;;4989726;28;20061;-84
2021/11/23 00:43:43;;;;;;;6.85;3.30;;;;;;;;;;4987614;28;20034;-85
2021/11/23 00:46:09;;;;;;;5.83;3.03;;;;;;;;;;4961612;29;20059;-84
2021/11/23 00:48:35;;;;;;;8.17;2.67;;;;;;;;;;4950250;29;20035;-85
2021/11/23 00:51:01;;;;;;;7.57;2.83;;;;;;;;;;4950000;29;20042;-85
2021/11/23 00:53:27;;;;;;;5.50;2.33;;;;;;;;;;4949570;28;20035;-85
2021/11/23 00:55:53;;;;;;;5.73;2.70;;;;;;;;;;4949175;29;20031;-84
2021/11/23 00:58:20;;;;;;;7.03;2.57;;;;;;;;;;4965376;29;20051;-85
2021/11/23 01:00:46;;;;;;;5.30;2.60;;;;;;;;;;4966583;29;20033;-85
2021/11/23 01:03:13;;;;;;;4.90;2.57;;;;;;;;;;4980233;28;20130;-85
2021/11/23 01:05:39;;;;;;;6.50;2.43;;;;;;;;;;4968487;28;20046;-85
2021/11/23 01:08:05;;;;;;;4.87;2.70;;;;;;;;;;4986201;28;20084;-84
2021/11/23 01:10:32;;;;;;;5.20;2.50;;;;;;;;;;4968953;28;20030;-84
2021/11/23 01:12:58;;;;;;;5.37;2.47;;;;;;;;;;4966126;29;20082;-84
2021/11/23 01:15:24;;;;;;;4.10;2.20;;;;;;;;;;4972986;28;20042;-84
2021/11/23 01:17:50;;;;;;;5.67;2.53;;;;;;;;;;4985360;28;20023;-85
2021/11/23 01:20:16;;;;;;;7.47;2.87;;;;;;;;;;4962342;29;20042;-85
2021/11/23 01:22:44;;;;;;;5.27;2.53;;;;;;;;;;4980116;28;20035;-84
2021/11/23 01:25:10;;;;;;;8.17;2.53;;;;;;;;;;4971466;28;20039;-85
2021/11/23 01:27:36;;;;;;;5.57;2.83;;;;;;;;;;4965518;28;20030;-85
2021/11/23 01:30:07;;;;;;;7.63;2.90;;;;;;;;;;4959028;29;20050;-84
2021/11/23 01:32:33;;;;;;;5.43;2.63;;;;;;;;;;4946155;29;20082;-84
2021/11/23 01:34:59;;;;;;;5.73;2.87;;;;;;;;;;4960856;28;20117;-85
2021/11/23 01:37:25;;;;;;;6.90;3.47;;;;;;;;;;4972898;28;20571;-85
2021/11/23 01:39:51;;;;;;;6.90;3.13;;;;;;;;;;4955801;29;20042;-85
2021/11/23 01:42:17;;;;;;;5.93;2.90;;;;;;;;;;4974035;28;20115;-84
2021/11/23 01:44:43;;;;;;;5.30;2.50;;;;;;;;;;4980459;28;20075;-84
2021/11/23 01:47:09;;;;;;;5.23;2.17;;;;;;;;;;4954694;29;20385;-84
2021/11/23 01:49:35;;;;;;;5.10;2.30;;;;;;;;;;4966305;28;20034;-85
2021/11/23 01:52:03;;;;;;;4.63;2.13;;;;;;;;;;4963389;28;20023;-84
2021/11/23 01:54:29;;;;;;;7.47;2.73;;;;;;;;;;4962988;28;20129;-85
2021/11/23 01:56:55;;;;;;;9.50;2.40;;;;;;;;;;4959126;28;20034;-85
2021/11/23 01:59:21;;;;;;;5.73;2.17;;;;;;;;;;4980097;28;20037;-84
2021/11/23 02:01:47;;;;;;;4.77;2.30;;;;;;;;;;4979929;28;20037;-85
2021/11/23 02:04:13;;;;;;;4.50;2.10;;;;;;;;;;4959018;28;20042;-84
2021/11/23 02:06:39;;;;;;;6.00;2.40;;;;;;;;;;4964656;28;20122;-85
2021/11/23 02:09:06;;;;;;;4.80;2.10;;;;;;;;;;4987168;28;20047;-85
2021/11/23 02:11:32;;;;;;;7.03;2.50;;;;;;;;;;4968046;28;20061;-85
2021/11/23 02:13:58;;;;;;;4.97;2.20;;;;;;;;;;4975510;28;20027;-84
2021/11/23 02:16:24;;;;;;;5.80;2.40;;;;;;;;;;4979668;28;20030;-84
2021/11/23 02:18:51;;;;;;;5.67;2.47;;;;;;;;;;4980395;28;20027;-85
2021/11/23 02:21:17;;;;;;;4.57;2.30;;;;;;;;;;4962931;28;20459;-84
2021/11/23 02:23:43;;;;;;;6.83;2.43;;;;;;;;;;4972101;28;20031;-84
2021/11/23 02:26:09;;;;;;;6.33;2.53;;;;;;;;;;4971347;28;20480;-85
2021/11/23 02:28:35;;;;;;;6.93;2.60;;;;;;;;;;4959598;29;20038;-84
2021/11/23 02:31:02;;;;;;;5.60;2.37;;;;;;;;;;4959086;29;20031;-84
2021/11/23 02:33:29;;;;;;;4.60;2.50;;;;;;;;;;4945670;28;20026;-84
2021/11/23 02:35:57;;;;;;;5.40;2.17;;;;;;;;;;4953919;29;20095;-84
2021/11/23 02:38:24;;;;;;;4.77;2.40;;;;;;;;;;4943906;29;20046;-85
2021/11/23 02:40:50;;;;;;;5.47;2.37;;;;;;;;;;4942813;29;20031;-85
2021/11/23 02:43:16;;;;;;;5.30;2.30;;;;;;;;;;4943243;28;20027;-84
2021/11/23 02:45:42;;;;;;;4.87;2.90;;;;;;;;;;4942166;29;20031;-84
2021/11/23 02:48:10;;;;;;;5.20;2.57;;;;;;;;;;4942079;29;20035;-84
2021/11/23 02:50:36;;;;;;;7.20;2.70;;;;;;;;;;4946722;28;20037;-84
2021/11/23 02:53:02;;;;;;;5.30;2.77;;;;;;;;;;4971962;28;20038;-84
2021/11/23 02:55:32;;;;;;;5.80;3.37;;;;;;;;;;4961207;28;20027;-85
2021/11/23 02:57:58;;;;;;;5.80;2.70;;;;;;;;;;4978096;28;20019;-84
2021/11/23 03:00:25;;;;;;;5.57;2.43;;;;;;;;;;4978161;28;20034;-84
2021/11/23 03:02:51;;;;;;;5.67;2.63;;;;;;;;;;4960416;28;20030;-84
2021/11/23 03:05:19;;;;;;;4.63;2.30;;;;;;;;;;4958033;28;20035;-84
2021/11/23 03:07:45;;;;;;;5.70;2.40;;;;;;;;;;4968521;28;20055;-84
2021/11/23 03:10:11;;;;;;;5.97;2.70;;;;;;;;;;4977839;28;20702;-84
2021/11/23 03:12:38;;;;;;;4.50;2.43;;;;;;;;;;4960807;28;20027;-84
2021/11/23 03:15:09;;;;;;;5.50;2.50;;;;;;;;;;4964717;23;21572;-86
2021/11/23 03:17:36;;;;;;;4.60;2.40;;;;;;;;;;4955174;28;20027;-86
2021/11/23 03:20:03;;;;;;;4.63;2.33;;;;;;;;;;4955528;29;20078;-86
2021/11/23 03:22:29;;;;;;;5.63;2.97;;;;;;;;;;4956038;29;20468;-86
2021/11/23 03:24:55;;;;;;;5.87;2.67;;;;;;;;;;4953962;28;20031;-86
2021/11/23 03:27:21;;;;;;;4.77;2.30;;;;;;;;;;4956167;28;20111;-86
2021/11/23 03:29:47;;;;;;;6.47;2.70;;;;;;;;;;4955920;29;20055;-86
2021/11/23 03:32:14;;;;;;;4.17;2.37;;;;;;;;;;4953822;29;20034;-85
2021/11/23 03:34:42;;;;;;;5.23;2.47;;;;;;;;;;4936495;29;20032;-83
2021/11/23 03:37:09;;;;;;;5.80;2.90;;;;;;;;;;4951352;29;20063;-85
2021/11/23 03:39:36;;;;;;;5.27;2.43;;;;;;;;;;4967712;28;20027;-85
2021/11/23 03:42:03;;;;;;;4.87;2.80;;;;;;;;;;4955727;28;20106;-85
2021/11/23 03:44:29;;;;;;;6.90;3.07;;;;;;;;;;4954008;28;20036;-85
2021/11/23 03:46:55;;;;;;;5.17;2.97;;;;;;;;;;4955841;29;20093;-84
2021/11/23 03:49:21;;;;;;;7.07;2.60;;;;;;;;;;4937340;29;20119;-85
2021/11/23 03:51:47;;;;;;;4.80;2.70;;;;;;;;;;4936899;29;20032;-84
2021/11/23 03:54:13;;;;;;;6.00;2.77;;;;;;;;;;4936244;29;20036;-84
2021/11/23 03:56:40;;;;;;;5.57;3.00;;;;;;;;;;4942172;29;20126;-84
2021/11/23 03:59:06;;;;;;;4.67;2.23;;;;;;;;;;4935182;29;20040;-84
2021/11/23 04:01:32;;;;;;;5.13;2.57;;;;;;;;;;4934734;29;20064;-85
2021/11/23 04:03:59;;;;;;;6.57;2.80;;;;;;;;;;4934592;29;20078;-85
2021/11/23 04:06:25;;;;;;;6.37;2.57;;;;;;;;;;4943868;29;20032;-84
2021/11/23 04:08:51;;;;;;;5.33;2.63;;;;;;;;;;4950336;29;20055;-85
2021/11/23 04:11:17;;;;;;;6.00;3.00;;;;;;;;;;4950699;29;20028;-84
2021/11/23 04:13:44;;;;;;;5.03;2.57;;;;;;;;;;4936962;29;20034;-85
2021/11/23 04:16:10;;;;;;;5.33;2.80;;;;;;;;;;4950083;28;20073;-84
2021/11/23 04:18:36;;;;;;;7.20;3.03;;;;;;;;;;4935999;29;20024;-84
2021/11/23 04:21:03;;;;;;;5.60;2.60;;;;;;;;;;4950154;29;20507;-84
2021/11/23 04:23:29;;;;;;;6.87;3.97;;;;;;;;;;4949642;28;20047;-84
2021/11/23 04:25:56;;;;;;;6.70;2.33;;;;;;;;;;4950917;28;20070;-84
2021/11/23 04:28:22;;;;;;;6.60;2.80;;;;;;;;;;4953864;28;20030;-85
2021/11/23 04:30:48;;;;;;;7.07;2.27;;;;;;;;;;4949012;29;20032;-84
2021/11/23 04:33:14;;;;;;;4.77;2.57;;;;;;;;;;4934580;29;20027;-84
2021/11/23 04:35:41;;;;;;;5.80;2.63;;;;;;;;;;4949164;29;20074;-84
2021/11/23 04:38:08;;;;;;;5.73;2.53;;;;;;;;;;4934957;29;20024;-85
2021/11/23 04:40:34;;;;;;;4.73;2.53;;;;;;;;;;4942658;29;20410;-84
2021/11/23 04:43:02;;;;;;;6.27;2.90;;;;;;;;;;4954032;28;20035;-84
2021/11/23 04:45:28;;;;;;;4.93;2.63;;;;;;;;;;4952430;28;20444;-84
2021/11/23 04:47:54;;;;;;;5.63;2.70;;;;;;;;;;4949304;29;20518;-84
2021/11/23 04:50:20;;;;;;;5.70;2.93;;;;;;;;;;4959507;28;20036;-84
2021/11/23 04:52:46;;;;;;;7.53;3.20;;;;;;;;;;4953968;28;20539;-84
2021/11/23 04:55:12;;;;;;;7.43;2.90;;;;;;;;;;4952346;28;20027;-84
2021/11/23 04:57:39;;;;;;;6.97;3.23;;;;;;;;;;4937736;29;20227;-84
2021/11/23 05:00:07;;;;;;;6.50;2.83;;;;;;;;;;4949707;29;20042;-84
2021/11/23 05:02:33;;;;;;;8.40;2.53;;;;;;;;;;4949712;29;20067;-84
2021/11/23 05:04:59;;;;;;;5.73;2.90;;;;;;;;;;4960675;28;20492;-84
2021/11/23 05:07:25;;;;;;;8.20;3.53;;;;;;;;;;4952517;29;20035;-84
2021/11/23 05:09:51;;;;;;;8.40;3.20;;;;;;;;;;4953661;29;20031;-84
2021/11/23 05:12:17;;;;;;;6.77;3.40;;;;;;;;;;4952440;29;20504;-84
2021/11/23 05:14:43;;;;;;;6.80;3.27;;;;;;;;;;4950041;28;20040;-85
2021/11/23 05:17:09;;;;;;;7.37;3.70;;;;;;;;;;4953309;29;20027;-84
2021/11/23 05:19:35;;;;;;;6.20;3.10;;;;;;;;;;4954731;28;20031;-84
2021/11/23 05:22:02;;;;;;;5.50;2.77;;;;;;;;;;4954652;29;20037;-85
2021/11/23 05:24:28;;;;;;;5.70;2.97;;;;;;;;;;4941647;29;20020;-85
2021/11/23 05:26:54;;;;;;;6.57;3.30;;;;;;;;;;4953986;29;20031;-86
2021/11/23 05:29:20;;;;;;;8.77;2.90;;;;;;;;;;4954567;28;20067;-85
2021/11/23 05:31:46;;;;;;;7.53;3.23;;;;;;;;;;4952469;29;20547;-85
2021/11/23 05:34:12;;;;;;;8.47;3.27;;;;;;;;;;4952843;29;20547;-85
2021/11/23 05:36:38;;;;;;;6.70;2.90;;;;;;;;;;4954809;28;20031;-85
2021/11/23 05:39:06;;;;;;;5.77;2.90;;;;;;;;;;4948002;28;20585;-85
2021/11/23 05:41:32;;;;;;;5.83;3.27;;;;;;;;;;4950982;29;20019;-85
2021/11/23 05:43:59;;;;;;;6.80;3.53;;;;;;;;;;4952790;29;20157;-85
2021/11/23 05:46:25;;;;;;;6.67;3.20;;;;;;;;;;4954426;28;20019;-85
2021/11/23 05:48:52;;;;;;;6.13;3.27;;;;;;;;;;4953414;28;20098;-84
2021/11/23 05:51:19;;;;;;;7.70;3.33;;;;;;;;;;4954050;29;20035;-84
2021/11/23 05:53:44;;;;;;;6.33;3.27;;;;;;;;;;4954496;28;20038;-84
2021/11/23 05:56:11;;;;;;;6.80;3.03;;;;;;;;;;4953996;28;20106;-85
2021/11/23 05:58:37;;;;;;;7.03;3.13;;;;;;;;;;4952807;29;20034;-84
2021/11/23 06:01:03;;;;;;;7.87;3.83;;;;;;;;;;4955472;28;20089;-84
2021/11/23 06:03:29;;;;;;;6.90;2.87;;;;;;;;;;4954536;29;20034;-85
2021/11/23 06:05:55;;;;;;;9.90;3.30;;;;;;;;;;4951990;28;20032;-84
2021/11/23 06:08:21;;;;;;;7.27;3.07;;;;;;;;;;4953075;29;20050;-85
2021/11/23 06:10:47;;;;;;;8.07;2.80;;;;;;;;;;4954957;28;20492;-85
2021/11/23 06:13:13;;;;;;;6.97;3.50;;;;;;;;;;4953480;29;20488;-84
2021/11/23 06:15:43;;;;;;;9.23;3.70;;;;;;;;;;4948666;28;20040;-85
2021/11/23 06:18:11;;;;;;;6.57;3.10;;;;;;;;;;4934455;29;20038;-85
2021/11/23 06:20:37;;;;;;;7.63;3.53;;;;;;;;;;4944696;29;20031;-85
2021/11/23 06:23:03;;;;;;;10.50;5.27;;;;;;;;;;4950470;29;20468;-85
2021/11/23 06:25:30;;;;;;;8.50;4.27;;;;;;;;;;4952170;28;20042;-85
2021/11/23 06:27:56;;;;;;;7.53;3.77;;;;;;;;;;4951340;29;20031;-85
2021/11/23 06:30:23;;;;;;;7.93;3.57;;;;;;;;;;4952689;29;20436;-85
2021/11/23 06:32:50;;;;;;;6.83;3.67;;;;;;;;;;4953161;28;20024;-85
2021/11/23 06:35:16;;;;;;;6.50;2.80;;;;;;;;;;4954680;28;20023;-84
2021/11/23 06:37:42;;;;;;;7.27;3.67;;;;;;;;;;4952559;29;20027;-85
2021/11/23 06:40:10;;;;;;;8.63;3.73;;;;;;;;;;4950272;29;20090;-85
2021/11/23 06:42:36;;;;;;;5.80;3.20;;;;;;;;;;4949567;29;20046;-85
2021/11/23 06:45:02;;;;;;;8.83;4.10;;;;;;;;;;4951527;28;20130;-85
2021/11/23 06:47:28;;;;;;;9.07;3.77;;;;;;;;;;4953211;28;20031;-85
2021/11/23 06:49:54;;;;;;;6.50;3.03;;;;;;;;;;4951839;28;20067;-85
2021/11/23 06:52:22;;;;;;;6.83;3.40;;;;;;;;;;4953015;29;20023;-85
2021/11/23 06:54:48;;;;;;;7.13;3.10;;;;;;;;;;4949538;28;20027;-85
2021/11/23 06:57:14;;;;;;;7.57;3.60;;;;;;;;;;4953907;28;20035;-84
2021/11/23 06:59:41;;;;;;;12.47;3.90;;;;;;;;;;4953856;28;20039;-85
2021/11/23 07:02:07;;;;;;;6.87;3.13;;;;;;;;;;4953418;28;20027;-85
2021/11/23 07:04:34;;;;;;;8.63;3.77;;;;;;;;;;4942381;28;20062;-85
2021/11/23 07:07:00;;;;;;;8.60;4.10;;;;;;;;;;4952538;29;20023;-85
2021/11/23 07:09:26;;;;;;;7.80;3.83;;;;;;;;;;4952472;29;20042;-85
2021/11/23 07:11:53;;;;;;;8.80;3.90;;;;;;;;;;4955764;28;20177;-85
2021/11/23 07:14:19;;;;;;;8.57;3.77;;;;;;;;;;4953447;29;20500;-85
2021/11/23 07:16:45;;;;;;;9.27;4.00;;;;;;;;;;4956301;28;20416;-85
2021/11/23 07:19:11;;;;;;;10.23;4.00;;;;;;;;;;4961971;29;20027;-85
2021/11/23 07:21:37;;;;;;;7.67;3.70;;;;;;;;;;4963012;28;20083;-84
2021/11/23 07:24:04;;;;;;;8.93;3.90;;;;;;;;;;4966133;29;20401;-85
2021/11/23 07:26:31;;;;;;;9.83;3.93;;;;;;;;;;4963276;28;20022;-85
2021/11/23 07:28:58;;;;;;;8.67;3.73;;;;;;;;;;4961354;29;20043;-85
2021/11/23 07:31:24;;;;;;;8.23;3.60;;;;;;;;;;4957168;29;20035;-85
2021/11/23 07:33:50;;;;;;;10.47;4.43;;;;;;;;;;4949308;29;20054;-85
2021/11/23 07:36:19;;;;;;;7.93;3.53;;;;;;;;;;4945856;29;20058;-85
2021/11/23 07:38:45;;;;;;;8.50;4.33;;;;;;;;;;4949502;29;20051;-84
2021/11/23 07:41:11;;;;;;;7.97;3.60;;;;;;;;;;4950802;28;20031;-84
2021/11/23 07:43:37;;;;;;;12.77;3.80;;;;;;;;;;4945251;29;20059;-85
2021/11/23 07:46:03;;;;;;;10.47;4.03;;;;;;;;;;4951455;28;20503;-84
2021/11/23 07:48:29;;;;;;;7.27;3.33;;;;;;;;;;4951953;28;20031;-85
2021/11/23 07:50:55;;;;;;;9.07;3.53;;;;;;;;;;4947707;29;20049;-85
2021/11/23 07:53:21;;;;;;;7.30;3.77;;;;;;;;;;4950003;28;20435;-86
2021/11/23 07:55:49;;;;;;;6.67;3.30;;;;;;;;;;4948745;28;20599;-86
2021/11/23 07:58:15;;;;;;;9.00;3.53;;;;;;;;;;4943938;29;20493;-86
2021/11/23 08:00:41;;;;;;;6.00;3.03;;;;;;;;;;4949001;29;20044;-86
2021/11/23 08:03:09;;;;;;;8.70;3.10;;;;;;;;;;4950006;29;20042;-86
2021/11/23 08:05:37;;;;;;;6.70;3.37;;;;;;;;;;4953114;28;20059;-86
2021/11/23 08:08:03;;;;;;;6.27;3.67;;;;;;;;;;4946244;29;20050;-86
2021/11/23 08:10:29;;;;;;;8.00;3.70;;;;;;;;;;4946638;29;20503;-86
2021/11/23 08:12:55;;;;;;;9.17;4.17;;;;;;;;;;4947962;29;20032;-86
2021/11/23 08:15:22;;;;;;;8.03;3.30;;;;;;;;;;4948251;28;20050;-86
2021/11/23 08:17:49;;;;;;;8.00;4.30;;;;;;;;;;4949386;29;20031;-86
2021/11/23 08:20:15;;;;;;;7.00;3.43;;;;;;;;;;4948332;29;20129;-86
2021/11/23 08:22:42;;;;;;;8.00;2.90;;;;;;;;;;4947859;28;20039;-86
2021/11/23 08:25:09;;;;;;;9.00;3.53;;;;;;;;;;4950298;28;20498;-87
2021/11/23 08:27:35;;;;;;;6.83;3.07;;;;;;;;;;4942976;29;20436;-86
2021/11/23 08:30:07;;;;;;;7.10;3.33;;;;;;;;;;4949915;29;20578;-87
2021/11/23 08:32:33;;;;;;;9.43;3.75;;;;;;;;;;4938350;29;20078;-86
2021/11/23 08:34:59;;;;;;;9.13;3.80;;;;;;;;;;4947880;28;20468;-86
2021/11/23 08:37:27;;;;;;;8.47;3.60;;;;;;;;;;4949604;28;20038;-86
2021/11/23 08:39:56;;;;;;;7.47;3.37;;;;;;;;;;4947863;28;20061;-86
2021/11/23 08:42:22;;;;;;;8.20;3.80;;;;;;;;;;4947893;29;20035;-87
2021/11/23 08:44:49;;;;;;;6.70;2.93;;;;;;;;;;4946923;28;20030;-87
2021/11/23 08:47:15;;;;;;;6.87;3.53;;;;;;;;;;4944861;29;20113;-87
2021/11/23 08:49:41;;;;;;;7.57;3.73;;;;;;;;;;4929433;29;20090;-87
2021/11/23 08:52:08;;;;;;;8.87;3.43;;;;;;;;;;4943899;29;20020;-87
2021/11/23 08:54:34;;;;;;;6.30;2.97;;;;;;;;;;4944486;28;20348;-87
2021/11/23 08:57:09;;;;;;;7.03;3.13;;;;;;;;;;4948015;28;20536;-88
2021/11/23 08:59:40;;;;;;;7.67;3.53;;;;;;;;;;4934138;29;20032;-88
2021/11/23 09:02:06;;;;;;;7.40;3.83;;;;;;;;;;4934124;29;20507;-88
2021/11/23 09:04:34;;;;;;;7.83;3.77;;;;;;;;;;4932429;29;20091;-88
2021/11/23 09:07:03;;;;;;;8.80;3.97;;;;;;;;;;4949563;29;20034;-87
2021/11/23 09:09:29;;;;;;;7.23;3.27;;;;;;;;;;4933799;29;20042;-88
2021/11/23 09:11:58;;;;;;;7.23;3.13;;;;;;;;;;4932720;29;20472;-87
2021/11/23 09:14:27;;;;;;;8.37;3.60;;;;;;;;;;4934052;29;20055;-86
2021/11/23 09:16:53;;;;;;;8.43;3.80;;;;;;;;;;5012807;23;20046;-83
2021/11/23 09:19:19;;;;;;;7.30;3.50;;;;;;;;;;4955816;29;20047;-83
2021/11/23 09:21:45;;;;;;;6.93;3.50;;;;;;;;;;4956856;29;20032;-83
2021/11/23 09:24:11;;;;;;;7.40;2.97;;;;;;;;;;4961733;29;20078;-83
2021/11/23 09:26:37;;;;;;;6.10;3.07;;;;;;;;;;4971200;28;20039;-84
2021/11/23 09:29:03;;;;;;;8.30;3.50;;;;;;;;;;4955957;29;20031;-84
2021/11/23 09:31:29;;;;;;;6.33;3.33;;;;;;;;;;4969583;29;20040;-84
2021/11/23 09:33:55;;;;;;;9.03;3.50;;;;;;;;;;4950027;29;20099;-84
2021/11/23 09:36:21;;;;;;;6.47;3.20;;;;;;;;;;4933041;29;20055;-84
2021/11/23 09:38:47;;;;;;;11.03;3.53;;;;;;;;;;4949455;29;20107;-84
2021/11/23 09:41:14;;;;;;;6.73;3.27;;;;;;;;;;4934136;29;20039;-84
2021/11/23 09:43:40;;;;;;;6.93;3.23;;;;;;;;;;4931560;29;20113;-83
2021/11/23 09:46:08;;;;;;;7.63;3.50;;;;;;;;;;4931538;29;20115;-84
2021/11/23 09:48:34;;;;;;;7.80;3.63;;;;;;;;;;4944213;29;20163;-83
2021/11/23 09:51:01;;;;;;;11.40;3.67;;;;;;;;;;4933326;29;20091;-84
2021/11/23 09:53:27;;;;;;;13.50;3.47;;;;;;;;;;4938986;29;20036;-84
2021/11/23 09:55:54;;;;;;;9.07;3.77;;;;;;;;;;4945453;29;20095;-84
2021/11/23 09:58:22;;;;;;;6.40;3.17;;;;;;;;;;4946269;29;20032;-83
2021/11/23 10:00:49;;;;;;;6.17;3.40;;;;;;;;;;4931474;29;20043;-84
2021/11/23 10:03:27;;;;;;;8.60;3.60;;;;;;;;;;4945380;29;20039;-84
2021/11/23 10:06:03;;;;;;;7.73;3.37;;;;;;;;;;4931680;29;20534;-83
2021/11/23 10:08:29;;;;;;;10.27;4.00;;;;;;;;;;4929443;29;20039;-84
2021/11/23 10:10:55;;;;;;;8.67;3.37;;;;;;;;;;4929683;29;20039;-84
2021/11/23 10:13:24;;;;;;;5.87;2.57;;;;;;;;;;4929882;29;20028;-83
2021/11/23 10:15:51;;;;;;;7.13;3.23;;;;;;;;;;4929504;29;20361;-84
2021/11/23 10:18:21;;;;;;;8.77;3.40;;;;;;;;;;4929697;29;20039;-83
2021/11/23 10:20:55;;;;;;;8.93;3.03;;;;;;;;;;4949639;29;20046;-83
2021/11/23 10:23:35;;;;;;;5.90;2.97;;;;;;;;;;4951530;29;20036;-84
2021/11/23 10:26:05;;;;;;;5.97;2.63;;;;;;;;;;4953669;29;20036;-83
2021/11/23 10:28:32;;;;;;;9.13;3.13;;;;;;;;;;4944245;29;20021;-83
2021/11/23 10:30:59;;;;;;;6.33;2.53;;;;;;;;;;4934432;29;20035;-83
2021/11/23 10:33:25;;;;;;;6.43;2.50;;;;;;;;;;4947309;29;20031;-83
2021/11/23 10:35:52;;;;;;;6.50;2.50;;;;;;;;;;4931578;29;20162;-84
2021/11/23 10:38:20;;;;;;;5.20;2.23;;;;;;;;;;4931543;29;20039;-83
2021/11/23 10:40:47;;;;;;;5.40;2.63;;;;;;;;;;4931999;29;20091;-83
2021/11/23 10:43:15;;;;;;;4.57;2.67;;;;;;;;;;4931809;29;20058;-84
2021/11/23 10:45:42;;;;;;;4.97;2.30;;;;;;;;;;4945994;29;20046;-84
2021/11/23 10:48:09;;;;;;;7.57;3.10;;;;;;;;;;4940134;29;20039;-84
2021/11/23 10:50:36;;;;;;;4.47;2.20;;;;;;;;;;4948946;29;20038;-83
2021/11/23 10:53:07;;;;;;;4.47;2.10;;;;;;;;;;4949529;29;20031;-84
2021/11/23 10:55:35;;;;;;;4.83;2.23;;;;;;;;;;4964178;28;20023;-84
2021/11/23 10:58:03;;;;;;;4.80;2.33;;;;;;;;;;4950450;29;20027;-84
2021/11/23 11:00:30;;;;;;;4.40;2.27;;;;;;;;;;4950162;29;20125;-84
2021/11/23 11:03:03;;;;;;;4.37;2.00;;;;;;;;;;4950637;29;20035;-84
2021/11/23 11:05:30;;;;;;;5.57;1.73;;;;;;;;;;4950373;29;20043;-84
2021/11/23 11:07:57;;;;;;;5.33;2.00;;;;;;;;;;4964684;29;20032;-83
2021/11/23 11:10:23;;;;;;;4.47;1.90;;;;;;;;;;4950368;29;20034;-83
2021/11/23 11:12:49;;;;;;;3.80;1.63;;;;;;;;;;4951856;29;20031;-84
2021/11/23 11:15:17;;;;;;;5.63;2.47;;;;;;;;;;4957728;29;20036;-84
2021/11/23 11:17:46;;;;;;;4.77;1.97;;;;;;;;;;4932270;29;20497;-84
2021/11/23 11:20:12;;;;;;;3.10;1.70;;;;;;;;;;4933348;29;20176;-84
2021/11/23 11:22:52;;;;;;;3.97;1.70;;;;;;;;;;4934156;29;20039;-84
2021/11/23 11:25:27;;;;;;;4.67;1.83;;;;;;;;;;4945597;29;20124;-83
2021/11/23 11:27:54;;;;;;;7.07;2.57;;;;;;;;;;4954547;29;20913;-83
2021/11/23 11:30:31;;;;;;;4.90;2.47;;;;;;;;;;4953037;29;20042;-84
2021/11/23 11:33:11;;;;;;;5.37;2.23;;;;;;;;;;4940167;29;20097;-84
2021/11/23 11:35:41;;;;;;;4.90;2.00;;;;;;;;;;4934633;29;20032;-84
2021/11/23 11:38:25;;;;;;;3.43;1.90;;;;;;;;;;4950455;29;20028;-84
2021/11/23 11:40:52;;;;;;;9.90;2.33;;;;;;;;;;4933662;29;20059;-84
2021/11/23 11:43:18;;;;;;;4.73;2.20;;;;;;;;;;4935063;29;20019;-84
2021/11/23 11:45:44;;;;;;;7.10;2.23;;;;;;;;;;4935894;29;20032;-84
2021/11/23 11:48:29;;;;;;;5.90;2.13;;;;;;;;;;4960118;29;20095;-84
2021/11/23 11:51:01;;;;;;;4.90;2.30;;;;;;;;;;4938807;29;20040;-84
2021/11/23 11:53:46;;;;;;;6.18;2.38;;;;;;;;;;4935497;29;20008;-84
2021/11/23 11:56:13;;;;;;;4.27;1.83;;;;;;;;;;4950057;29;20032;-84
2021/11/23 11:59:08;;;;;;;4.47;1.83;;;;;;;;;;4951146;29;20099;-85
2021/11/23 12:01:34;;;;;;;2.73;1.47;;;;;;;;;;4949763;29;20056;-84
2021/11/23 12:04:09;;;;;;;5.53;2.00;;;;;;;;;;4935181;29;20022;-84
2021/11/23 12:06:53;;;;;;;4.47;1.80;;;;;;;;;;4935791;29;20020;-84
2021/11/23 12:09:40;;;;;;;3.77;1.43;;;;;;;;;;4949933;29;20067;-84
2021/11/23 12:12:09;;;;;;;5.33;2.23;;;;;;;;;;4935670;29;20032;-84
2021/11/23 12:14:37;;;;;;;3.93;1.67;;;;;;;;;;4934898;29;20028;-84
2021/11/23 12:17:15;;;;;;;3.47;1.60;;;;;;;;;;4945763;29;20016;-84
2021/11/23 12:19:52;;;;;;;3.90;1.57;;;;;;;;;;4968593;29;20132;-84
2021/11/23 12:22:37;;;;;;;4.03;1.47;;;;;;;;;;4968174;28;20022;-84
2021/11/23 12:25:04;;;;;;;3.43;1.50;;;;;;;;;;4953704;29;20052;-84
2021/11/23 12:27:33;;;;;;;4.17;1.60;;;;;;;;;;4970692;28;20129;-84
2021/11/23 12:29:59;;;;;;;4.07;1.30;;;;;;;;;;4956013;29;20349;-85
2021/11/23 12:32:28;;;;;;;6.63;1.77;;;;;;;;;;4944092;29;20040;-84
2021/11/23 12:34:54;;;;;;;4.03;1.60;;;;;;;;;;4938674;29;20030;-85
2021/11/23 12:37:30;;;;;;;2.93;1.30;;;;;;;;;;4946601;29;20044;-84
2021/11/23 12:39:58;;;;;;;5.47;2.50;;;;;;;;;;4970122;29;20039;-84
2021/11/23 12:42:24;;;;;;;4.33;1.80;;;;;;;;;;4972529;28;20016;-84
2021/11/23 12:44:51;;;;;;;4.87;1.30;;;;;;;;;;4971267;29;20298;-85
2021/11/23 12:47:19;;;;;;;3.87;1.40;;;;;;;;;;4956911;29;20030;-84
2021/11/23 12:49:54;;;;;;;3.87;1.37;;;;;;;;;;4939121;29;20255;-84
2021/11/23 12:52:25;;;;;;;3.03;1.00;;;;;;;;;;4953006;29;20039;-84
2021/11/23 12:54:52;;;;;;;2.27;1.00;;;;;;;;;;4937909;29;20059;-84
2021/11/23 12:57:19;;;;;;;3.70;1.23;;;;;;;;;;4938423;29;20044;-85
2021/11/23 12:59:47;;;;;;;2.70;1.20;;;;;;;;;;4937678;29;20120;-84
2021/11/23 13:02:36;;;;;;;2.37;0.93;;;;;;;;;;4937381;29;20025;-84
2021/11/23 13:05:05;;;;;;;2.33;1.00;;;;;;;;;;4936231;29;20015;-85
2021/11/23 13:07:35;;;;;;;3.43;0.90;;;;;;;;;;4937502;29;20036;-84
2021/11/23 13:10:04;;;;;;;2.43;0.90;;;;;;;;;;4938354;29;20779;-84
2021/11/23 13:12:31;;;;;;;2.87;0.90;;;;;;;;;;4938638;29;20043;-84
2021/11/23 13:15:00;;;;;;;2.43;0.90;;;;;;;;;;4937915;29;20220;-84
2021/11/23 13:17:45;;;;;;;2.90;1.00;;;;;;;;;;4951665;29;20017;-84
2021/11/23 13:20:14;;;;;;;2.57;0.70;;;;;;;;;;4938263;29;20032;-84
2021/11/23 13:22:45;;;;;;;2.57;1.20;;;;;;;;;;4971908;29;20028;-84
2021/11/23 13:25:14;;;;;;;2.73;1.07;;;;;;;;;;4956577;28;20052;-84
2021/11/23 13:27:40;;;;;;;3.43;1.30;;;;;;;;;;4972468;29;20042;-83
2021/11/23 13:30:25;;;;;;;2.83;1.20;;;;;;;;;;4943576;29;20044;-84
2021/11/23 13:32:53;;;;;;;3.80;1.30;;;;;;;;;;4952757;29;20028;-83
2021/11/23 13:35:19;;;;;;;3.97;1.23;;;;;;;;;;4937624;29;20004;-84
2021/11/23 13:37:49;;;;;;;3.20;1.27;;;;;;;;;;4937214;29;20032;-84
2021/11/23 13:40:19;;;;;;;3.27;1.30;;;;;;;;;;4937860;29;20036;-84
2021/11/23 13:42:45;;;;;;;2.50;1.00;;;;;;;;;;4936617;29;20016;-84
2021/11/23 13:45:17;;;;;;;4.27;1.33;;;;;;;;;;4937399;29;20028;-84
2021/11/23 13:47:44;;;;;;;8.30;1.43;;;;;;;;;;4944619;29;20022;-84
2021/11/23 13:50:13;;;;;;;2.83;1.30;;;;;;;;;;4958420;29;20654;-84
2021/11/23 13:52:39;;;;;;;2.23;1.10;;;;;;;;;;4957237;28;20582;-84
2021/11/23 13:55:10;;;;;;;3.57;1.17;;;;;;;;;;4953707;29;20020;-84
2021/11/23 13:57:42;;;;;;;3.00;1.10;;;;;;;;;;4939115;29;20004;-84
2021/11/23 14:00:16;;;;;;;1.95;0.80;;;;;;;;;;4952324;29;20012;-84
2021/11/23 14:02:46;;;;;;;2.90;1.30;;;;;;;;;;4948126;29;20067;-85
2021/11/23 14:05:13;;;;;;;3.13;1.37;;;;;;;;;;4931971;29;20032;-86
2021/11/23 14:07:55;;;;;;;2.13;1.00;;;;;;;;;;4931597;29;20087;-85
2021/11/23 14:10:31;;;;;;;2.70;1.10;;;;;;;;;;4930832;29;20064;-85
2021/11/23 14:13:05;;;;;;;2.63;0.90;;;;;;;;;;4948797;29;20047;-85
2021/11/23 14:15:40;;;;;;;4.53;1.20;;;;;;;;;;4946531;29;20107;-86
2021/11/23 14:18:10;;;;;;;3.20;1.40;;;;;;;;;;4947700;29;20032;-85
2021/11/23 14:20:46;;;;;;;2.00;1.10;;;;;;;;;;4960269;29;20488;-85
2021/11/23 14:23:13;;;;;;;2.73;1.07;;;;;;;;;;4958520;28;20039;-86
2021/11/23 14:25:40;;;;;;;2.63;1.30;;;;;;;;;;4964754;28;20083;-86
2021/11/23 14:28:07;;;;;;;3.57;1.00;;;;;;;;;;4970482;29;20031;-86
2021/11/23 14:30:34;;;;;;;2.47;1.00;;;;;;;;;;4955588;28;20047;-86
2021/11/23 14:33:00;;;;;;;3.20;1.30;;;;;;;;;;4948420;29;20040;-86
2021/11/23 14:35:27;;;;;;;2.53;1.20;;;;;;;;;;4929968;29;20044;-86
2021/11/23 14:37:54;;;;;;;3.10;1.10;;;;;;;;;;4931336;29;20028;-86
2021/11/23 14:40:20;;;;;;;3.83;1.40;;;;;;;;;;4946385;29;20032;-86
2021/11/23 14:42:46;;;;;;;2.60;1.40;;;;;;;;;;4931770;29;20071;-87
2021/11/23 14:45:12;;;;;;;4.40;1.23;;;;;;;;;;4930348;29;20032;-86
2021/11/23 14:47:39;;;;;;;2.33;0.97;;;;;;;;;;4949905;29;20038;-86